sensor_id;sensor_type;location;lat;lon;timestamp;P1;durP1;ratioP1;P2;durP2;ratioP2
76903;SDS011;65865;51.698;-0.292;2023-10-08T00:02:09;1.90;;;0.65;;
76903;SDS011;65865;51.698;-0.292;2023-10-08T00:04:36;2.20;;;0.63;;
76903;SDS011;65865;51.698;-0.292;2023-10-08T00:07:02;2.72;;;0.85;;
76903;SDS011;65865;51.698;-0.292;2023-10-08T00:09:32;2.20;;;0.70;;
76903;SDS011;65865;51.698;-0.292;2023-10-08T00:12:01;2.08;;;0.80;;
76903;SDS011;65865;51.698;-0.292;2023-10-08T00:14:27;2.67;;;0.75;;
76903;SDS011;65865;51.698;-0.292;2023-10-08T00:16:53;2.13;;;0.90;;
76903;SDS011;65865;51.698;-0.292;2023-10-08T00:19:19;3.03;;;0.70;;
76903;SDS011;65865;51.698;-0.292;2023-10-08T00:21:46;1.92;;;0.75;;
76903;SDS011;65865;51.698;-0.292;2023-10-08T00:24:13;2.33;;;0.75;;
76903;SDS011;65865;51.698;-0.292;2023-10-08T00:26:40;1.70;;;0.63;;
76903;SDS011;65865;51.698;-0.292;2023-10-08T00:29:07;3.47;;;0.73;;
76903;SDS011;65865;51.698;-0.292;2023-10-08T00:31:46;1.60;;;0.70;;
76903;SDS011;65865;51.698;-0.292;2023-10-08T00:34:14;2.17;;;0.70;;
76903;SDS011;65865;51.698;-0.292;2023-10-08T00:36:42;2.35;;;0.80;;
76903;SDS011;65865;51.698;-0.292;2023-10-08T00:39:09;1.52;;;0.70;;
76903;SDS011;65865;51.698;-0.292;2023-10-08T00:41:39;2.17;;;0.68;;
76903;SDS011;65865;51.698;-0.292;2023-10-08T00:44:07;1.73;;;0.90;;
76903;SDS011;65865;51.698;-0.292;2023-10-08T00:46:34;2.15;;;0.80;;
76903;SDS011;65865;51.698;-0.292;2023-10-08T00:49:16;1.70;;;0.88;;
76903;SDS011;65865;51.698;-0.292;2023-10-08T00:52:03;1.90;;;0.75;;
76903;SDS011;65865;51.698;-0.292;2023-10-08T00:54:49;1.67;;;0.60;;
76903;SDS011;65865;51.698;-0.292;2023-10-08T00:57:18;2.40;;;0.75;;
76903;SDS011;65865;51.698;-0.292;2023-10-08T00:59:46;2.72;;;1.00;;
76903;SDS011;65865;51.698;-0.292;2023-10-08T01:02:18;2.55;;;0.95;;
76903;SDS011;65865;51.698;-0.292;2023-10-08T01:04:46;2.35;;;0.88;;
76903;SDS011;65865;51.698;-0.292;2023-10-08T01:07:12;2.08;;;0.65;;
76903;SDS011;65865;51.698;-0.292;2023-10-08T01:09:41;2.38;;;0.80;;
76903;SDS011;65865;51.698;-0.292;2023-10-08T01:14:45;1.70;;;0.73;;
76903;SDS011;65865;51.698;-0.292;2023-10-08T01:17:12;2.40;;;0.73;;
76903;SDS011;65865;51.698;-0.292;2023-10-08T01:19:41;2.47;;;0.82;;
76903;SDS011;65865;51.698;-0.292;2023-10-08T01:22:10;2.63;;;0.60;;
76903;SDS011;65865;51.698;-0.292;2023-10-08T01:24:49;2.28;;;0.93;;
76903;SDS011;65865;51.698;-0.292;2023-10-08T01:27:16;1.50;;;0.80;;
76903;SDS011;65865;51.698;-0.292;2023-10-08T01:29:48;1.83;;;0.88;;
76903;SDS011;65865;51.698;-0.292;2023-10-08T01:32:17;2.17;;;0.75;;
76903;SDS011;65865;51.698;-0.292;2023-10-08T01:34:44;2.05;;;0.73;;
76903;SDS011;65865;51.698;-0.292;2023-10-08T01:37:16;1.80;;;0.68;;
76903;SDS011;65865;51.698;-0.292;2023-10-08T01:39:46;2.35;;;0.75;;
76903;SDS011;65865;51.698;-0.292;2023-10-08T01:42:14;1.95;;;0.63;;
76903;SDS011;65865;51.698;-0.292;2023-10-08T01:44:45;2.53;;;1.05;;
76903;SDS011;65865;51.698;-0.292;2023-10-08T01:47:12;2.45;;;0.88;;
76903;SDS011;65865;51.698;-0.292;2023-10-08T01:49:39;2.20;;;0.93;;
76903;SDS011;65865;51.698;-0.292;2023-10-08T01:52:05;1.95;;;0.75;;
76903;SDS011;65865;51.698;-0.292;2023-10-08T01:54:42;1.80;;;0.73;;
76903;SDS011;65865;51.698;-0.292;2023-10-08T01:57:09;2.47;;;0.93;;
76903;SDS011;65865;51.698;-0.292;2023-10-08T01:59:35;2.83;;;0.95;;
76903;SDS011;65865;51.698;-0.292;2023-10-08T02:02:03;3.15;;;1.00;;
76903;SDS011;65865;51.698;-0.292;2023-10-08T02:04:31;2.25;;;0.95;;
76903;SDS011;65865;51.698;-0.292;2023-10-08T02:06:58;1.98;;;1.25;;
76903;SDS011;65865;51.698;-0.292;2023-10-08T02:09:24;1.48;;;0.73;;
76903;SDS011;65865;51.698;-0.292;2023-10-08T02:11:51;2.50;;;0.82;;
76903;SDS011;65865;51.698;-0.292;2023-10-08T02:14:21;2.05;;;0.63;;
76903;SDS011;65865;51.698;-0.292;2023-10-08T02:16:48;3.13;;;0.73;;
76903;SDS011;65865;51.698;-0.292;2023-10-08T02:19:14;2.60;;;0.93;;
76903;SDS011;65865;51.698;-0.292;2023-10-08T02:21:43;2.40;;;1.15;;
76903;SDS011;65865;51.698;-0.292;2023-10-08T02:24:12;2.10;;;0.95;;
76903;SDS011;65865;51.698;-0.292;2023-10-08T02:26:39;2.97;;;0.82;;
76903;SDS011;65865;51.698;-0.292;2023-10-08T02:29:05;2.15;;;0.88;;
76903;SDS011;65865;51.698;-0.292;2023-10-08T02:31:36;2.90;;;0.90;;
76903;SDS011;65865;51.698;-0.292;2023-10-08T02:34:03;2.58;;;0.80;;
76903;SDS011;65865;51.698;-0.292;2023-10-08T02:36:29;3.17;;;1.05;;
76903;SDS011;65865;51.698;-0.292;2023-10-08T02:38:55;2.50;;;1.30;;
76903;SDS011;65865;51.698;-0.292;2023-10-08T02:41:21;2.35;;;1.02;;
76903;SDS011;65865;51.698;-0.292;2023-10-08T02:43:49;2.45;;;0.63;;
76903;SDS011;65865;51.698;-0.292;2023-10-08T02:46:15;1.52;;;0.60;;
76903;SDS011;65865;51.698;-0.292;2023-10-08T02:48:43;3.13;;;0.90;;
76903;SDS011;65865;51.698;-0.292;2023-10-08T02:51:09;2.75;;;1.55;;
76903;SDS011;65865;51.698;-0.292;2023-10-08T02:53:41;2.58;;;0.70;;
76903;SDS011;65865;51.698;-0.292;2023-10-08T02:56:08;3.10;;;1.40;;
76903;SDS011;65865;51.698;-0.292;2023-10-08T02:58:41;2.65;;;0.95;;
76903;SDS011;65865;51.698;-0.292;2023-10-08T03:01:09;2.28;;;0.68;;
76903;SDS011;65865;51.698;-0.292;2023-10-08T03:03:37;2.08;;;0.82;;
76903;SDS011;65865;51.698;-0.292;2023-10-08T03:06:03;3.72;;;1.20;;
76903;SDS011;65865;51.698;-0.292;2023-10-08T03:08:29;2.20;;;0.73;;
76903;SDS011;65865;51.698;-0.292;2023-10-08T03:11:01;2.40;;;1.35;;
76903;SDS011;65865;51.698;-0.292;2023-10-08T03:13:27;3.42;;;0.90;;
76903;SDS011;65865;51.698;-0.292;2023-10-08T03:15:53;3.15;;;1.25;;
76903;SDS011;65865;51.698;-0.292;2023-10-08T03:18:26;2.90;;;0.90;;
76903;SDS011;65865;51.698;-0.292;2023-10-08T03:21:00;2.45;;;0.90;;
76903;SDS011;65865;51.698;-0.292;2023-10-08T03:23:30;2.95;;;1.50;;
76903;SDS011;65865;51.698;-0.292;2023-10-08T03:26:00;4.05;;;1.13;;
76903;SDS011;65865;51.698;-0.292;2023-10-08T03:28:34;2.30;;;0.90;;
76903;SDS011;65865;51.698;-0.292;2023-10-08T03:31:01;2.72;;;0.82;;
76903;SDS011;65865;51.698;-0.292;2023-10-08T03:33:30;2.25;;;0.77;;
76903;SDS011;65865;51.698;-0.292;2023-10-08T03:35:59;3.00;;;1.05;;
76903;SDS011;65865;51.698;-0.292;2023-10-08T03:38:29;2.70;;;0.73;;
76903;SDS011;65865;51.698;-0.292;2023-10-08T03:41:14;2.67;;;0.98;;
76903;SDS011;65865;51.698;-0.292;2023-10-08T03:43:44;2.63;;;0.98;;
76903;SDS011;65865;51.698;-0.292;2023-10-08T03:46:29;2.08;;;1.30;;
76903;SDS011;65865;51.698;-0.292;2023-10-08T03:48:56;2.47;;;1.00;;
76903;SDS011;65865;51.698;-0.292;2023-10-08T03:51:29;2.45;;;0.93;;
76903;SDS011;65865;51.698;-0.292;2023-10-08T03:53:55;2.78;;;0.85;;
76903;SDS011;65865;51.698;-0.292;2023-10-08T03:56:31;1.85;;;0.80;;
76903;SDS011;65865;51.698;-0.292;2023-10-08T03:59:01;2.25;;;0.82;;
76903;SDS011;65865;51.698;-0.292;2023-10-08T04:01:45;2.03;;;0.90;;
76903;SDS011;65865;51.698;-0.292;2023-10-08T04:04:14;2.65;;;1.40;;
76903;SDS011;65865;51.698;-0.292;2023-10-08T04:06:43;4.35;;;1.00;;
76903;SDS011;65865;51.698;-0.292;2023-10-08T04:09:16;3.22;;;1.42;;
76903;SDS011;65865;51.698;-0.292;2023-10-08T04:11:46;2.67;;;0.93;;
76903;SDS011;65865;51.698;-0.292;2023-10-08T04:14:12;2.75;;;0.88;;
76903;SDS011;65865;51.698;-0.292;2023-10-08T04:16:41;3.05;;;1.40;;
76903;SDS011;65865;51.698;-0.292;2023-10-08T04:19:07;3.83;;;1.10;;
76903;SDS011;65865;51.698;-0.292;2023-10-08T04:21:33;2.53;;;0.95;;
76903;SDS011;65865;51.698;-0.292;2023-10-08T04:24:00;3.50;;;0.93;;
76903;SDS011;65865;51.698;-0.292;2023-10-08T04:26:30;2.47;;;0.88;;
76903;SDS011;65865;51.698;-0.292;2023-10-08T04:28:58;2.47;;;0.82;;
76903;SDS011;65865;51.698;-0.292;2023-10-08T04:31:27;2.17;;;1.23;;
76903;SDS011;65865;51.698;-0.292;2023-10-08T04:34:02;2.67;;;1.02;;
76903;SDS011;65865;51.698;-0.292;2023-10-08T04:36:35;2.80;;;1.20;;
76903;SDS011;65865;51.698;-0.292;2023-10-08T04:39:03;2.90;;;1.30;;
76903;SDS011;65865;51.698;-0.292;2023-10-08T04:41:42;2.83;;;0.95;;
76903;SDS011;65865;51.698;-0.292;2023-10-08T04:44:09;2.97;;;1.13;;
76903;SDS011;65865;51.698;-0.292;2023-10-08T04:46:41;2.45;;;1.27;;
76903;SDS011;65865;51.698;-0.292;2023-10-08T04:49:17;2.92;;;1.08;;
76903;SDS011;65865;51.698;-0.292;2023-10-08T04:51:56;2.97;;;1.33;;
76903;SDS011;65865;51.698;-0.292;2023-10-08T04:54:25;2.42;;;1.00;;
76903;SDS011;65865;51.698;-0.292;2023-10-08T04:57:00;2.13;;;0.82;;
76903;SDS011;65865;51.698;-0.292;2023-10-08T04:59:29;3.25;;;0.90;;
76903;SDS011;65865;51.698;-0.292;2023-10-08T05:01:59;2.38;;;1.00;;
76903;SDS011;65865;51.698;-0.292;2023-10-08T05:04:44;2.67;;;1.10;;
76903;SDS011;65865;51.698;-0.292;2023-10-08T05:07:30;2.15;;;0.98;;
76903;SDS011;65865;51.698;-0.292;2023-10-08T05:10:12;2.97;;;1.02;;
76903;SDS011;65865;51.698;-0.292;2023-10-08T05:12:44;2.40;;;0.73;;
76903;SDS011;65865;51.698;-0.292;2023-10-08T05:15:31;2.55;;;1.00;;
76903;SDS011;65865;51.698;-0.292;2023-10-08T05:18:16;3.15;;;1.35;;
76903;SDS011;65865;51.698;-0.292;2023-10-08T05:20:42;2.80;;;1.13;;
76903;SDS011;65865;51.698;-0.292;2023-10-08T05:23:14;2.72;;;1.10;;
76903;SDS011;65865;51.698;-0.292;2023-10-08T05:26:06;3.25;;;1.80;;
76903;SDS011;65865;51.698;-0.292;2023-10-08T05:28:33;2.10;;;0.73;;
76903;SDS011;65865;51.698;-0.292;2023-10-08T05:31:14;3.00;;;1.13;;
76903;SDS011;65865;51.698;-0.292;2023-10-08T05:33:40;2.90;;;1.00;;
76903;SDS011;65865;51.698;-0.292;2023-10-08T05:36:39;2.63;;;0.75;;
76903;SDS011;65865;51.698;-0.292;2023-10-08T05:39:24;2.67;;;1.13;;
76903;SDS011;65865;51.698;-0.292;2023-10-08T05:41:53;2.90;;;1.20;;
76903;SDS011;65865;51.698;-0.292;2023-10-08T05:44:37;4.40;;;1.52;;
76903;SDS011;65865;51.698;-0.292;2023-10-08T05:47:07;3.33;;;1.15;;
76903;SDS011;65865;51.698;-0.292;2023-10-08T05:50:11;3.15;;;1.10;;
76903;SDS011;65865;51.698;-0.292;2023-10-08T05:52:41;4.30;;;1.13;;
76903;SDS011;65865;51.698;-0.292;2023-10-08T05:55:22;3.10;;;1.17;;
76903;SDS011;65865;51.698;-0.292;2023-10-08T05:57:55;3.42;;;1.00;;
76903;SDS011;65865;51.698;-0.292;2023-10-08T06:00:50;2.90;;;1.13;;
76903;SDS011;65865;51.698;-0.292;2023-10-08T06:03:19;2.75;;;1.15;;
76903;SDS011;65865;51.698;-0.292;2023-10-08T06:06:01;2.28;;;1.00;;
76903;SDS011;65865;51.698;-0.292;2023-10-08T06:08:36;2.85;;;0.93;;
76903;SDS011;65865;51.698;-0.292;2023-10-08T06:11:21;2.85;;;0.95;;
76903;SDS011;65865;51.698;-0.292;2023-10-08T06:14:06;2.22;;;0.85;;
76903;SDS011;65865;51.698;-0.292;2023-10-08T06:16:52;2.10;;;0.88;;
76903;SDS011;65865;51.698;-0.292;2023-10-08T06:19:38;1.95;;;0.98;;
76903;SDS011;65865;51.698;-0.292;2023-10-08T06:22:04;3.10;;;1.98;;
76903;SDS011;65865;51.698;-0.292;2023-10-08T06:24:30;2.78;;;1.33;;
76903;SDS011;65865;51.698;-0.292;2023-10-08T06:26:58;2.67;;;0.93;;
76903;SDS011;65865;51.698;-0.292;2023-10-08T06:29:29;3.17;;;1.33;;
76903;SDS011;65865;51.698;-0.292;2023-10-08T06:31:56;3.67;;;1.40;;
76903;SDS011;65865;51.698;-0.292;2023-10-08T06:34:27;2.50;;;1.05;;
76903;SDS011;65865;51.698;-0.292;2023-10-08T06:36:53;3.15;;;1.17;;
76903;SDS011;65865;51.698;-0.292;2023-10-08T06:39:25;3.05;;;1.08;;
76903;SDS011;65865;51.698;-0.292;2023-10-08T06:41:58;2.55;;;0.93;;
76903;SDS011;65865;51.698;-0.292;2023-10-08T06:44:24;2.38;;;1.02;;
76903;SDS011;65865;51.698;-0.292;2023-10-08T06:46:51;2.88;;;0.90;;
76903;SDS011;65865;51.698;-0.292;2023-10-08T06:49:20;2.85;;;1.38;;
76903;SDS011;65865;51.698;-0.292;2023-10-08T06:51:48;2.80;;;1.65;;
76903;SDS011;65865;51.698;-0.292;2023-10-08T06:54:15;2.45;;;1.08;;
76903;SDS011;65865;51.698;-0.292;2023-10-08T06:56:43;2.50;;;1.00;;
76903;SDS011;65865;51.698;-0.292;2023-10-08T06:59:14;3.25;;;1.10;;
76903;SDS011;65865;51.698;-0.292;2023-10-08T07:01:41;3.58;;;1.42;;
76903;SDS011;65865;51.698;-0.292;2023-10-08T07:04:11;3.15;;;1.13;;
76903;SDS011;65865;51.698;-0.292;2023-10-08T07:06:46;3.22;;;1.38;;
76903;SDS011;65865;51.698;-0.292;2023-10-08T07:09:13;2.47;;;1.13;;
76903;SDS011;65865;51.698;-0.292;2023-10-08T07:11:57;2.63;;;1.00;;
76903;SDS011;65865;51.698;-0.292;2023-10-08T07:14:27;3.00;;;1.23;;
76903;SDS011;65865;51.698;-0.292;2023-10-08T07:16:54;3.72;;;1.20;;
76903;SDS011;65865;51.698;-0.292;2023-10-08T07:19:23;3.33;;;1.48;;
76903;SDS011;65865;51.698;-0.292;2023-10-08T07:21:57;3.58;;;1.23;;
76903;SDS011;65865;51.698;-0.292;2023-10-08T07:24:28;3.45;;;1.08;;
76903;SDS011;65865;51.698;-0.292;2023-10-08T07:26:56;2.60;;;0.88;;
76903;SDS011;65865;51.698;-0.292;2023-10-08T07:29:23;3.60;;;1.15;;
76903;SDS011;65865;51.698;-0.292;2023-10-08T07:31:50;3.85;;;1.52;;
76903;SDS011;65865;51.698;-0.292;2023-10-08T07:34:18;3.08;;;1.05;;
76903;SDS011;65865;51.698;-0.292;2023-10-08T07:36:50;3.00;;;0.93;;
76903;SDS011;65865;51.698;-0.292;2023-10-08T07:39:17;2.72;;;1.05;;
76903;SDS011;65865;51.698;-0.292;2023-10-08T07:41:49;3.15;;;1.23;;
76903;SDS011;65865;51.698;-0.292;2023-10-08T07:44:15;3.58;;;1.48;;
76903;SDS011;65865;51.698;-0.292;2023-10-08T07:46:46;2.83;;;1.35;;
76903;SDS011;65865;51.698;-0.292;2023-10-08T07:49:12;3.15;;;1.38;;
76903;SDS011;65865;51.698;-0.292;2023-10-08T07:51:39;3.85;;;1.42;;
76903;SDS011;65865;51.698;-0.292;2023-10-08T07:54:06;4.28;;;1.33;;
76903;SDS011;65865;51.698;-0.292;2023-10-08T07:56:34;3.67;;;1.70;;
76903;SDS011;65865;51.698;-0.292;2023-10-08T07:59:02;2.95;;;1.13;;
76903;SDS011;65865;51.698;-0.292;2023-10-08T08:01:33;3.42;;;1.88;;
76903;SDS011;65865;51.698;-0.292;2023-10-08T08:03:59;3.35;;;1.77;;
76903;SDS011;65865;51.698;-0.292;2023-10-08T08:06:26;4.03;;;1.42;;
76903;SDS011;65865;51.698;-0.292;2023-10-08T08:08:52;3.65;;;1.42;;
76903;SDS011;65865;51.698;-0.292;2023-10-08T08:11:18;3.90;;;1.23;;
76903;SDS011;65865;51.698;-0.292;2023-10-08T08:13:45;4.38;;;1.50;;
76903;SDS011;65865;51.698;-0.292;2023-10-08T08:16:11;3.38;;;1.25;;
76903;SDS011;65865;51.698;-0.292;2023-10-08T08:18:46;3.38;;;1.45;;
76903;SDS011;65865;51.698;-0.292;2023-10-08T08:21:13;3.40;;;1.42;;
76903;SDS011;65865;51.698;-0.292;2023-10-08T08:23:44;4.13;;;1.60;;
76903;SDS011;65865;51.698;-0.292;2023-10-08T08:26:16;3.95;;;1.60;;
76903;SDS011;65865;51.698;-0.292;2023-10-08T08:29:02;4.35;;;1.58;;
76903;SDS011;65865;51.698;-0.292;2023-10-08T08:31:29;3.63;;;1.42;;
76903;SDS011;65865;51.698;-0.292;2023-10-08T08:34:00;3.80;;;1.48;;
76903;SDS011;65865;51.698;-0.292;2023-10-08T08:36:28;4.65;;;1.42;;
76903;SDS011;65865;51.698;-0.292;2023-10-08T08:38:54;4.65;;;2.05;;
76903;SDS011;65865;51.698;-0.292;2023-10-08T08:41:21;3.83;;;1.63;;
76903;SDS011;65865;51.698;-0.292;2023-10-08T08:43:51;4.82;;;1.95;;
76903;SDS011;65865;51.698;-0.292;2023-10-08T08:46:33;5.38;;;2.13;;
76903;SDS011;65865;51.698;-0.292;2023-10-08T08:49:01;4.57;;;1.58;;
76903;SDS011;65865;51.698;-0.292;2023-10-08T08:51:28;5.65;;;2.08;;
76903;SDS011;65865;51.698;-0.292;2023-10-08T08:53:55;4.40;;;1.98;;
76903;SDS011;65865;51.698;-0.292;2023-10-08T08:56:24;4.68;;;2.08;;
76903;SDS011;65865;51.698;-0.292;2023-10-08T08:58:52;6.22;;;1.88;;
76903;SDS011;65865;51.698;-0.292;2023-10-08T09:01:18;4.72;;;1.73;;
76903;SDS011;65865;51.698;-0.292;2023-10-08T09:03:44;7.50;;;2.13;;
76903;SDS011;65865;51.698;-0.292;2023-10-08T09:06:14;4.78;;;2.15;;
76903;SDS011;65865;51.698;-0.292;2023-10-08T09:08:40;4.60;;;1.58;;
76903;SDS011;65865;51.698;-0.292;2023-10-08T09:11:13;7.43;;;1.98;;
76903;SDS011;65865;51.698;-0.292;2023-10-08T09:13:40;5.13;;;2.10;;
76903;SDS011;65865;51.698;-0.292;2023-10-08T09:18:32;5.93;;;1.92;;
76903;SDS011;65865;51.698;-0.292;2023-10-08T09:21:09;6.38;;;2.17;;
76903;SDS011;65865;51.698;-0.292;2023-10-08T09:23:38;8.23;;;2.30;;
76903;SDS011;65865;51.698;-0.292;2023-10-08T09:26:08;4.32;;;1.63;;
76903;SDS011;65865;51.698;-0.292;2023-10-08T09:28:34;5.80;;;2.17;;
76903;SDS011;65865;51.698;-0.292;2023-10-08T09:31:03;5.50;;;2.15;;
76903;SDS011;65865;51.698;-0.292;2023-10-08T09:33:31;7.57;;;1.83;;
76903;SDS011;65865;51.698;-0.292;2023-10-08T09:35:58;6.10;;;2.55;;
76903;SDS011;65865;51.698;-0.292;2023-10-08T09:38:27;11.65;;;2.60;;
76903;SDS011;65865;51.698;-0.292;2023-10-08T09:40:55;9.93;;;3.20;;
76903;SDS011;65865;51.698;-0.292;2023-10-08T09:43:22;8.10;;;2.97;;
76903;SDS011;65865;51.698;-0.292;2023-10-08T09:46:00;7.82;;;2.40;;
76903;SDS011;65865;51.698;-0.292;2023-10-08T09:48:26;8.02;;;2.30;;
76903;SDS011;65865;51.698;-0.292;2023-10-08T09:50:53;6.88;;;2.50;;
76903;SDS011;65865;51.698;-0.292;2023-10-08T09:53:43;7.78;;;2.47;;
76903;SDS011;65865;51.698;-0.292;2023-10-08T09:56:13;8.23;;;2.53;;
76903;SDS011;65865;51.698;-0.292;2023-10-08T09:58:43;8.63;;;2.40;;
76903;SDS011;65865;51.698;-0.292;2023-10-08T10:01:09;7.15;;;2.38;;
76903;SDS011;65865;51.698;-0.292;2023-10-08T10:03:36;5.47;;;2.38;;
76903;SDS011;65865;51.698;-0.292;2023-10-08T10:06:02;5.32;;;2.58;;
76903;SDS011;65865;51.698;-0.292;2023-10-08T10:08:35;7.65;;;2.55;;
76903;SDS011;65865;51.698;-0.292;2023-10-08T10:11:01;5.85;;;2.30;;
76903;SDS011;65865;51.698;-0.292;2023-10-08T10:13:28;6.18;;;2.22;;
76903;SDS011;65865;51.698;-0.292;2023-10-08T10:15:54;8.68;;;2.55;;
76903;SDS011;65865;51.698;-0.292;2023-10-08T10:20:55;5.28;;;2.47;;
76903;SDS011;65865;51.698;-0.292;2023-10-08T10:26:05;6.18;;;2.47;;
76903;SDS011;65865;51.698;-0.292;2023-10-08T10:28:34;6.93;;;2.50;;
76903;SDS011;65865;51.698;-0.292;2023-10-08T10:31:02;6.85;;;2.42;;
76903;SDS011;65865;51.698;-0.292;2023-10-08T10:33:29;7.68;;;3.20;;
76903;SDS011;65865;51.698;-0.292;2023-10-08T10:35:56;7.63;;;2.90;;
76903;SDS011;65865;51.698;-0.292;2023-10-08T10:38:22;7.93;;;2.72;;
76903;SDS011;65865;51.698;-0.292;2023-10-08T10:40:51;6.75;;;2.53;;
76903;SDS011;65865;51.698;-0.292;2023-10-08T10:43:23;5.30;;;2.38;;
76903;SDS011;65865;51.698;-0.292;2023-10-08T10:45:58;5.82;;;2.67;;
76903;SDS011;65865;51.698;-0.292;2023-10-08T10:48:24;5.55;;;2.72;;
76903;SDS011;65865;51.698;-0.292;2023-10-08T10:50:59;7.13;;;3.22;;
76903;SDS011;65865;51.698;-0.292;2023-10-08T10:53:32;5.18;;;2.33;;
76903;SDS011;65865;51.698;-0.292;2023-10-08T10:55:58;7.25;;;2.53;;
76903;SDS011;65865;51.698;-0.292;2023-10-08T10:58:30;5.63;;;2.90;;
76903;SDS011;65865;51.698;-0.292;2023-10-08T11:01:04;5.40;;;2.33;;
76903;SDS011;65865;51.698;-0.292;2023-10-08T11:03:47;7.65;;;2.75;;
76903;SDS011;65865;51.698;-0.292;2023-10-08T11:06:16;7.18;;;2.75;;
76903;SDS011;65865;51.698;-0.292;2023-10-08T11:08:48;5.85;;;2.55;;
76903;SDS011;65865;51.698;-0.292;2023-10-08T11:11:16;5.18;;;2.25;;
76903;SDS011;65865;51.698;-0.292;2023-10-08T11:13:42;6.72;;;3.38;;
76903;SDS011;65865;51.698;-0.292;2023-10-08T11:16:14;6.13;;;3.03;;
76903;SDS011;65865;51.698;-0.292;2023-10-08T11:18:44;6.72;;;2.50;;
76903;SDS011;65865;51.698;-0.292;2023-10-08T11:21:14;5.97;;;2.25;;
76903;SDS011;65865;51.698;-0.292;2023-10-08T11:23:44;7.18;;;2.72;;
76903;SDS011;65865;51.698;-0.292;2023-10-08T11:26:17;6.25;;;2.47;;
76903;SDS011;65865;51.698;-0.292;2023-10-08T11:28:44;5.78;;;2.47;;
76903;SDS011;65865;51.698;-0.292;2023-10-08T11:31:13;6.88;;;2.85;;
76903;SDS011;65865;51.698;-0.292;2023-10-08T11:33:43;6.40;;;2.70;;
76903;SDS011;65865;51.698;-0.292;2023-10-08T11:36:22;7.40;;;2.70;;
76903;SDS011;65865;51.698;-0.292;2023-10-08T11:39:09;6.32;;;2.40;;
76903;SDS011;65865;51.698;-0.292;2023-10-08T11:41:36;6.22;;;2.95;;
76903;SDS011;65865;51.698;-0.292;2023-10-08T11:44:15;7.60;;;2.83;;
76903;SDS011;65865;51.698;-0.292;2023-10-08T11:46:45;7.43;;;2.50;;
76903;SDS011;65865;51.698;-0.292;2023-10-08T11:49:16;6.88;;;2.97;;
76903;SDS011;65865;51.698;-0.292;2023-10-08T11:51:50;5.60;;;2.47;;
76903;SDS011;65865;51.698;-0.292;2023-10-08T11:54:20;6.60;;;2.67;;
76903;SDS011;65865;51.698;-0.292;2023-10-08T11:56:48;5.88;;;2.35;;
76903;SDS011;65865;51.698;-0.292;2023-10-08T11:59:14;7.15;;;2.95;;
76903;SDS011;65865;51.698;-0.292;2023-10-08T12:01:43;6.75;;;2.47;;
76903;SDS011;65865;51.698;-0.292;2023-10-08T12:04:11;6.05;;;2.35;;
76903;SDS011;65865;51.698;-0.292;2023-10-08T12:06:41;5.35;;;2.60;;
76903;SDS011;65865;51.698;-0.292;2023-10-08T12:09:12;7.68;;;2.95;;
76903;SDS011;65865;51.698;-0.292;2023-10-08T12:11:39;7.22;;;2.72;;
76903;SDS011;65865;51.698;-0.292;2023-10-08T12:14:05;7.50;;;3.00;;
76903;SDS011;65865;51.698;-0.292;2023-10-08T12:16:32;6.05;;;2.65;;
76903;SDS011;65865;51.698;-0.292;2023-10-08T12:19:01;6.28;;;2.45;;
76903;SDS011;65865;51.698;-0.292;2023-10-08T12:21:38;5.88;;;2.67;;
76903;SDS011;65865;51.698;-0.292;2023-10-08T12:24:04;5.75;;;2.53;;
76903;SDS011;65865;51.698;-0.292;2023-10-08T12:26:30;5.80;;;3.38;;
76903;SDS011;65865;51.698;-0.292;2023-10-08T12:28:57;6.47;;;2.72;;
76903;SDS011;65865;51.698;-0.292;2023-10-08T12:31:23;6.57;;;2.78;;
76903;SDS011;65865;51.698;-0.292;2023-10-08T12:33:50;6.05;;;2.42;;
76903;SDS011;65865;51.698;-0.292;2023-10-08T12:36:21;4.88;;;2.45;;
76903;SDS011;65865;51.698;-0.292;2023-10-08T12:38:52;7.20;;;2.53;;
76903;SDS011;65865;51.698;-0.292;2023-10-08T12:41:22;5.93;;;2.95;;
76903;SDS011;65865;51.698;-0.292;2023-10-08T12:43:50;8.15;;;2.70;;
76903;SDS011;65865;51.698;-0.292;2023-10-08T12:46:19;6.18;;;2.55;;
76903;SDS011;65865;51.698;-0.292;2023-10-08T12:48:51;8.55;;;3.20;;
76903;SDS011;65865;51.698;-0.292;2023-10-08T12:51:19;6.38;;;2.92;;
76903;SDS011;65865;51.698;-0.292;2023-10-08T12:53:48;8.45;;;3.00;;
76903;SDS011;65865;51.698;-0.292;2023-10-08T12:56:28;6.20;;;2.97;;
76903;SDS011;65865;51.698;-0.292;2023-10-08T12:59:00;10.35;;;3.33;;
76903;SDS011;65865;51.698;-0.292;2023-10-08T13:01:29;5.35;;;2.55;;
76903;SDS011;65865;51.698;-0.292;2023-10-08T13:03:55;4.07;;;2.05;;
76903;SDS011;65865;51.698;-0.292;2023-10-08T13:06:26;6.50;;;2.33;;
76903;SDS011;65865;51.698;-0.292;2023-10-08T13:08:56;5.30;;;2.30;;
76903;SDS011;65865;51.698;-0.292;2023-10-08T13:11:22;12.00;;;2.65;;
76903;SDS011;65865;51.698;-0.292;2023-10-08T13:13:52;6.35;;;2.28;;
76903;SDS011;65865;51.698;-0.292;2023-10-08T13:16:21;8.43;;;3.10;;
76903;SDS011;65865;51.698;-0.292;2023-10-08T13:18:48;6.07;;;2.33;;
76903;SDS011;65865;51.698;-0.292;2023-10-08T13:21:14;5.35;;;2.08;;
76903;SDS011;65865;51.698;-0.292;2023-10-08T13:23:40;5.25;;;2.15;;
76903;SDS011;65865;51.698;-0.292;2023-10-08T13:26:06;5.43;;;2.30;;
76903;SDS011;65865;51.698;-0.292;2023-10-08T13:28:35;5.70;;;2.47;;
76903;SDS011;65865;51.698;-0.292;2023-10-08T13:31:05;6.25;;;2.30;;
76903;SDS011;65865;51.698;-0.292;2023-10-08T13:33:38;5.60;;;2.05;;
76903;SDS011;65865;51.698;-0.292;2023-10-08T13:36:06;6.35;;;2.00;;
76903;SDS011;65865;51.698;-0.292;2023-10-08T13:38:33;7.38;;;2.38;;
76903;SDS011;65865;51.698;-0.292;2023-10-08T13:41:00;7.85;;;2.20;;
76903;SDS011;65865;51.698;-0.292;2023-10-08T13:43:32;6.68;;;2.42;;
76903;SDS011;65865;51.698;-0.292;2023-10-08T13:46:02;10.10;;;3.05;;
76903;SDS011;65865;51.698;-0.292;2023-10-08T13:48:38;5.32;;;2.33;;
76903;SDS011;65865;51.698;-0.292;2023-10-08T13:51:05;6.18;;;2.67;;
76903;SDS011;65865;51.698;-0.292;2023-10-08T13:53:38;5.72;;;2.30;;
76903;SDS011;65865;51.698;-0.292;2023-10-08T13:56:05;5.18;;;2.10;;
76903;SDS011;65865;51.698;-0.292;2023-10-08T13:58:31;6.90;;;3.35;;
76903;SDS011;65865;51.698;-0.292;2023-10-08T14:01:00;5.30;;;2.47;;
76903;SDS011;65865;51.698;-0.292;2023-10-08T14:03:29;4.97;;;2.20;;
76903;SDS011;65865;51.698;-0.292;2023-10-08T14:05:58;7.35;;;2.45;;
76903;SDS011;65865;51.698;-0.292;2023-10-08T14:08:29;7.18;;;2.22;;
76903;SDS011;65865;51.698;-0.292;2023-10-08T14:10:55;4.97;;;2.20;;
76903;SDS011;65865;51.698;-0.292;2023-10-08T14:13:28;5.47;;;2.38;;
76903;SDS011;65865;51.698;-0.292;2023-10-08T14:15:54;5.53;;;2.58;;
76903;SDS011;65865;51.698;-0.292;2023-10-08T14:18:24;5.18;;;2.30;;
76903;SDS011;65865;51.698;-0.292;2023-10-08T14:20:53;7.07;;;2.28;;
76903;SDS011;65865;51.698;-0.292;2023-10-08T14:23:20;5.38;;;2.17;;
76903;SDS011;65865;51.698;-0.292;2023-10-08T14:25:48;5.65;;;2.38;;
76903;SDS011;65865;51.698;-0.292;2023-10-08T14:28:16;5.70;;;2.10;;
76903;SDS011;65865;51.698;-0.292;2023-10-08T14:31:05;5.50;;;2.20;;
76903;SDS011;65865;51.698;-0.292;2023-10-08T14:33:31;7.70;;;3.20;;
76903;SDS011;65865;51.698;-0.292;2023-10-08T14:36:06;13.85;;;4.45;;
76903;SDS011;65865;51.698;-0.292;2023-10-08T14:38:51;11.82;;;4.80;;
76903;SDS011;65865;51.698;-0.292;2023-10-08T14:41:35;10.05;;;4.38;;
76903;SDS011;65865;51.698;-0.292;2023-10-08T14:44:20;10.88;;;4.32;;
76903;SDS011;65865;51.698;-0.292;2023-10-08T14:46:46;11.13;;;4.10;;
76903;SDS011;65865;51.698;-0.292;2023-10-08T14:49:13;13.02;;;5.82;;
76903;SDS011;65865;51.698;-0.292;2023-10-08T14:51:39;10.27;;;4.63;;
76903;SDS011;65865;51.698;-0.292;2023-10-08T14:54:06;12.48;;;4.38;;
76903;SDS011;65865;51.698;-0.292;2023-10-08T14:56:33;11.55;;;3.72;;
76903;SDS011;65865;51.698;-0.292;2023-10-08T14:58:59;10.50;;;4.70;;
76903;SDS011;65865;51.698;-0.292;2023-10-08T15:01:26;10.32;;;4.03;;
76903;SDS011;65865;51.698;-0.292;2023-10-08T15:03:53;11.45;;;4.32;;